sensor_id;sensor_type;location;lat;lon;timestamp;noise_LAeq;noise_LA_min;noise_LA_max;noise_LA01;noise_LA95
77361;Laerm;66427;51.798;10.954;2023-04-09T00:01:55;30.24;27.51;39.04;;
77361;Laerm;66427;51.798;10.954;2023-04-09T00:04:21;33.56;28.63;48.01;;
77361;Laerm;66427;51.798;10.954;2023-04-09T00:06:47;31.97;28.52;40.72;;
77361;Laerm;66427;51.798;10.954;2023-04-09T00:09:13;30.83;27.39;47.74;;
77361;Laerm;66427;51.798;10.954;2023-04-09T00:11:39;33.45;27.54;45.86;;
77361;Laerm;66427;51.798;10.954;2023-04-09T00:14:05;48.09;28.72;62.16;;
77361;Laerm;66427;51.798;10.954;2023-04-09T00:16:31;40.51;27.65;60.45;;
77361;Laerm;66427;51.798;10.954;2023-04-09T00:18:57;29.91;27.94;35.63;;
77361;Laerm;66427;51.798;10.954;2023-04-09T00:21:22;30.21;27.96;36.79;;
77361;Laerm;66427;51.798;10.954;2023-04-09T00:23:48;51.37;27.56;68.63;;
77361;Laerm;66427;51.798;10.954;2023-04-09T00:26:14;43.67;27.55;63.29;;
77361;Laerm;66427;51.798;10.954;2023-04-09T00:28:40;30.20;27.82;43.35;;
77361;Laerm;66427;51.798;10.954;2023-04-09T00:31:06;28.90;27.73;31.56;;
77361;Laerm;66427;51.798;10.954;2023-04-09T00:33:31;28.98;27.64;33.89;;
77361;Laerm;66427;51.798;10.954;2023-04-09T00:35:57;29.71;28.00;35.37;;
77361;Laerm;66427;51.798;10.954;2023-04-09T00:38:23;29.07;27.78;31.22;;
77361;Laerm;66427;51.798;10.954;2023-04-09T00:40:49;30.43;28.63;33.98;;
77361;Laerm;66427;51.798;10.954;2023-04-09T00:43:15;29.13;27.29;34.68;;
77361;Laerm;66427;51.798;10.954;2023-04-09T00:45:42;28.11;27.45;28.87;;
77361;Laerm;66427;51.798;10.954;2023-04-09T00:48:08;29.35;27.73;33.33;;
77361;Laerm;66427;51.798;10.954;2023-04-09T00:50:35;28.18;27.46;30.06;;
77361;Laerm;66427;51.798;10.954;2023-04-09T00:53:00;28.90;27.62;34.77;;
77361;Laerm;66427;51.798;10.954;2023-04-09T00:55:26;28.76;27.66;34.65;;
77361;Laerm;66427;51.798;10.954;2023-04-09T00:57:52;29.26;27.40;34.25;;
77361;Laerm;66427;51.798;10.954;2023-04-09T01:00:18;28.61;27.61;32.74;;
77361;Laerm;66427;51.798;10.954;2023-04-09T01:02:44;28.60;27.65;31.39;;
77361;Laerm;66427;51.798;10.954;2023-04-09T01:05:10;28.03;27.28;29.53;;
77361;Laerm;66427;51.798;10.954;2023-04-09T01:10:28;30.74;27.45;40.24;;
77361;Laerm;66427;51.798;10.954;2023-04-09T01:13:06;30.25;27.26;46.73;;
77361;Laerm;66427;51.798;10.954;2023-04-09T01:15:33;28.47;27.16;32.30;;
77361;Laerm;66427;51.798;10.954;2023-04-09T01:18:04;29.00;27.19;33.80;;
77361;Laerm;66427;51.798;10.954;2023-04-09T01:20:38;28.25;27.16;35.93;;
77361;Laerm;66427;51.798;10.954;2023-04-09T01:30:31;28.82;27.20;43.92;;
77361;Laerm;66427;51.798;10.954;2023-04-09T01:32:56;33.23;27.50;51.30;;
77361;Laerm;66427;51.798;10.954;2023-04-09T01:35:23;30.86;27.28;47.87;;
77361;Laerm;66427;51.798;10.954;2023-04-09T01:37:51;33.39;27.38;51.17;;
77361;Laerm;66427;51.798;10.954;2023-04-09T01:40:17;51.70;27.09;68.92;;
77361;Laerm;66427;51.798;10.954;2023-04-09T01:42:43;28.62;27.01;34.05;;
77361;Laerm;66427;51.798;10.954;2023-04-09T01:45:10;28.47;27.07;36.97;;
77361;Laerm;66427;51.798;10.954;2023-04-09T01:47:37;29.03;27.19;37.95;;
77361;Laerm;66427;51.798;10.954;2023-04-09T01:50:03;28.56;26.94;37.20;;
77361;Laerm;66427;51.798;10.954;2023-04-09T01:52:29;29.10;27.03;40.01;;
77361;Laerm;66427;51.798;10.954;2023-04-09T01:54:55;27.79;26.93;29.75;;
77361;Laerm;66427;51.798;10.954;2023-04-09T01:57:21;28.08;27.01;32.35;;
77361;Laerm;66427;51.798;10.954;2023-04-09T01:59:46;29.12;27.15;34.84;;
77361;Laerm;66427;51.798;10.954;2023-04-09T02:02:15;28.68;27.20;33.03;;
77361;Laerm;66427;51.798;10.954;2023-04-09T02:04:43;28.84;27.16;42.91;;
77361;Laerm;66427;51.798;10.954;2023-04-09T02:09:46;32.61;27.14;48.53;;
77361;Laerm;66427;51.798;10.954;2023-04-09T02:12:13;47.63;27.11;62.23;;
77361;Laerm;66427;51.798;10.954;2023-04-09T02:14:40;56.62;27.63;75.20;;
77361;Laerm;66427;51.798;10.954;2023-04-09T02:17:07;29.59;27.60;38.76;;
77361;Laerm;66427;51.798;10.954;2023-04-09T02:19:42;33.12;27.60;55.75;;
77361;Laerm;66427;51.798;10.954;2023-04-09T02:22:08;28.60;27.26;34.37;;
77361;Laerm;66427;51.798;10.954;2023-04-09T02:24:34;48.63;27.33;65.89;;
77361;Laerm;66427;51.798;10.954;2023-04-09T02:27:00;29.88;27.25;50.05;;
77361;Laerm;66427;51.798;10.954;2023-04-09T02:29:26;48.74;27.46;64.78;;
77361;Laerm;66427;51.798;10.954;2023-04-09T02:31:52;28.66;27.30;32.36;;
77361;Laerm;66427;51.798;10.954;2023-04-09T02:34:18;31.45;27.09;43.92;;
77361;Laerm;66427;51.798;10.954;2023-04-09T02:36:44;32.57;27.55;53.62;;
77361;Laerm;66427;51.798;10.954;2023-04-09T02:39:10;30.08;27.48;37.29;;
77361;Laerm;66427;51.798;10.954;2023-04-09T02:41:36;29.22;27.15;37.01;;
77361;Laerm;66427;51.798;10.954;2023-04-09T02:44:02;30.02;27.39;35.25;;
77361;Laerm;66427;51.798;10.954;2023-04-09T02:46:27;29.66;27.33;35.11;;
77361;Laerm;66427;51.798;10.954;2023-04-09T02:48:53;29.97;27.60;43.71;;
77361;Laerm;66427;51.798;10.954;2023-04-09T02:51:19;45.76;28.01;61.04;;
77361;Laerm;66427;51.798;10.954;2023-04-09T02:53:45;30.59;27.98;36.27;;
77361;Laerm;66427;51.798;10.954;2023-04-09T02:56:10;31.08;27.50;40.27;;
77361;Laerm;66427;51.798;10.954;2023-04-09T02:58:36;30.94;27.82;41.93;;
77361;Laerm;66427;51.798;10.954;2023-04-09T03:01:02;29.34;27.34;35.53;;
77361;Laerm;66427;51.798;10.954;2023-04-09T03:03:28;31.02;27.23;39.90;;
77361;Laerm;66427;51.798;10.954;2023-04-09T03:05:55;31.33;28.29;37.80;;
77361;Laerm;66427;51.798;10.954;2023-04-09T03:08:20;37.55;27.31;53.61;;
77361;Laerm;66427;51.798;10.954;2023-04-09T03:10:46;41.48;27.83;56.58;;
77361;Laerm;66427;51.798;10.954;2023-04-09T03:13:12;45.12;28.40;64.66;;
77361;Laerm;66427;51.798;10.954;2023-04-09T03:15:38;51.04;28.48;68.19;;
77361;Laerm;66427;51.798;10.954;2023-04-09T03:18:04;52.14;29.35;69.36;;
77361;Laerm;66427;51.798;10.954;2023-04-09T03:20:29;42.36;28.05;56.34;;
77361;Laerm;66427;51.798;10.954;2023-04-09T03:22:55;46.19;30.00;57.68;;
77361;Laerm;66427;51.798;10.954;2023-04-09T03:25:21;45.54;29.31;58.96;;
77361;Laerm;66427;51.798;10.954;2023-04-09T03:27:46;46.06;29.19;57.90;;
77361;Laerm;66427;51.798;10.954;2023-04-09T03:30:13;45.64;28.70;56.52;;
77361;Laerm;66427;51.798;10.954;2023-04-09T03:32:38;46.20;29.80;57.33;;
77361;Laerm;66427;51.798;10.954;2023-04-09T03:35:04;46.45;28.89;58.58;;
77361;Laerm;66427;51.798;10.954;2023-04-09T03:37:30;46.61;29.46;58.39;;
77361;Laerm;66427;51.798;10.954;2023-04-09T03:39:56;46.38;30.44;59.37;;
77361;Laerm;66427;51.798;10.954;2023-04-09T03:42:21;45.71;30.36;59.26;;
77361;Laerm;66427;51.798;10.954;2023-04-09T03:44:47;46.76;30.96;59.26;;
77361;Laerm;66427;51.798;10.954;2023-04-09T03:47:13;46.68;30.95;58.28;;
77361;Laerm;66427;51.798;10.954;2023-04-09T03:49:39;46.31;30.01;57.54;;
77361;Laerm;66427;51.798;10.954;2023-04-09T03:52:07;46.81;32.37;58.86;;
77361;Laerm;66427;51.798;10.954;2023-04-09T03:54:33;49.98;32.72;63.05;;
77361;Laerm;66427;51.798;10.954;2023-04-09T03:56:59;51.23;33.60;62.91;;
77361;Laerm;66427;51.798;10.954;2023-04-09T03:59:25;54.39;34.72;65.47;;
77361;Laerm;66427;51.798;10.954;2023-04-09T04:01:51;53.77;34.78;63.65;;
77361;Laerm;66427;51.798;10.954;2023-04-09T04:04:17;54.43;36.20;63.89;;
77361;Laerm;66427;51.798;10.954;2023-04-09T04:06:42;54.60;33.32;65.13;;
77361;Laerm;66427;51.798;10.954;2023-04-09T04:09:08;54.60;33.96;65.23;;
77361;Laerm;66427;51.798;10.954;2023-04-09T04:11:34;51.17;32.37;61.70;;
77361;Laerm;66427;51.798;10.954;2023-04-09T04:14:00;51.89;32.25;64.75;;
77361;Laerm;66427;51.798;10.954;2023-04-09T04:16:26;45.53;32.19;57.97;;
77361;Laerm;66427;51.798;10.954;2023-04-09T04:18:51;43.34;33.23;52.62;;
77361;Laerm;66427;51.798;10.954;2023-04-09T04:21:17;43.13;31.72;53.84;;
77361;Laerm;66427;51.798;10.954;2023-04-09T04:23:43;42.74;31.27;53.81;;
77361;Laerm;66427;51.798;10.954;2023-04-09T04:26:09;43.44;30.73;54.73;;
77361;Laerm;66427;51.798;10.954;2023-04-09T04:28:35;43.00;31.63;54.81;;
77361;Laerm;66427;51.798;10.954;2023-04-09T04:31:01;43.16;31.83;55.30;;
77361;Laerm;66427;51.798;10.954;2023-04-09T04:33:27;43.15;31.84;55.36;;
77361;Laerm;66427;51.798;10.954;2023-04-09T04:35:53;48.11;31.03;63.68;;
77361;Laerm;66427;51.798;10.954;2023-04-09T04:38:19;49.37;29.98;64.77;;
77361;Laerm;66427;51.798;10.954;2023-04-09T04:40:47;43.12;29.11;54.86;;
77361;Laerm;66427;51.798;10.954;2023-04-09T04:43:13;42.21;29.40;52.92;;
77361;Laerm;66427;51.798;10.954;2023-04-09T04:45:38;45.42;30.10;59.68;;
77361;Laerm;66427;51.798;10.954;2023-04-09T04:48:04;41.65;29.78;51.65;;
77361;Laerm;66427;51.798;10.954;2023-04-09T04:50:30;42.35;31.16;53.61;;
77361;Laerm;66427;51.798;10.954;2023-04-09T04:52:56;51.98;30.67;67.32;;
77361;Laerm;66427;51.798;10.954;2023-04-09T04:55:22;47.90;30.37;62.46;;
77361;Laerm;66427;51.798;10.954;2023-04-09T04:57:49;50.48;32.04;63.99;;
77361;Laerm;66427;51.798;10.954;2023-04-09T05:00:15;42.44;30.53;53.14;;
77361;Laerm;66427;51.798;10.954;2023-04-09T05:02:41;42.29;29.87;54.04;;
77361;Laerm;66427;51.798;10.954;2023-04-09T05:05:07;43.33;30.21;54.08;;
77361;Laerm;66427;51.798;10.954;2023-04-09T05:07:32;43.09;31.25;54.13;;
77361;Laerm;66427;51.798;10.954;2023-04-09T05:09:59;42.83;29.61;58.01;;
77361;Laerm;66427;51.798;10.954;2023-04-09T05:12:25;40.57;30.11;51.81;;
77361;Laerm;66427;51.798;10.954;2023-04-09T05:14:50;48.97;29.52;64.63;;
77361;Laerm;66427;51.798;10.954;2023-04-09T05:17:16;42.66;31.21;54.28;;
77361;Laerm;66427;51.798;10.954;2023-04-09T05:19:42;49.30;30.47;64.94;;
77361;Laerm;66427;51.798;10.954;2023-04-09T05:22:08;49.03;29.31;65.94;;
77361;Laerm;66427;51.798;10.954;2023-04-09T05:24:33;44.24;30.28;56.54;;
77361;Laerm;66427;51.798;10.954;2023-04-09T05:26:59;40.83;30.21;54.04;;
77361;Laerm;66427;51.798;10.954;2023-04-09T05:29:25;42.45;31.32;52.69;;
77361;Laerm;66427;51.798;10.954;2023-04-09T05:31:51;42.21;30.51;52.05;;
77361;Laerm;66427;51.798;10.954;2023-04-09T05:34:16;43.39;31.74;58.18;;
77361;Laerm;66427;51.798;10.954;2023-04-09T05:36:42;43.75;30.36;58.42;;
77361;Laerm;66427;51.798;10.954;2023-04-09T05:39:08;38.53;30.06;49.12;;
77361;Laerm;66427;51.798;10.954;2023-04-09T05:41:35;43.86;30.71;60.97;;
77361;Laerm;66427;51.798;10.954;2023-04-09T05:44:03;41.10;30.38;60.30;;
77361;Laerm;66427;51.798;10.954;2023-04-09T05:46:28;40.01;28.85;53.31;;
77361;Laerm;66427;51.798;10.954;2023-04-09T05:48:55;39.56;29.46;54.25;;
77361;Laerm;66427;51.798;10.954;2023-04-09T05:51:21;40.86;30.39;53.15;;
77361;Laerm;66427;51.798;10.954;2023-04-09T05:53:47;39.21;31.10;52.92;;
77361;Laerm;66427;51.798;10.954;2023-04-09T05:56:13;39.56;30.54;52.94;;
77361;Laerm;66427;51.798;10.954;2023-04-09T05:58:39;51.06;30.91;68.30;;
77361;Laerm;66427;51.798;10.954;2023-04-09T06:01:05;40.19;31.65;51.13;;
77361;Laerm;66427;51.798;10.954;2023-04-09T06:03:31;50.17;31.64;67.66;;
77361;Laerm;66427;51.798;10.954;2023-04-09T06:05:57;37.93;30.79;47.62;;
77361;Laerm;66427;51.798;10.954;2023-04-09T06:08:23;39.60;30.77;51.42;;
77361;Laerm;66427;51.798;10.954;2023-04-09T06:10:48;43.99;31.46;54.41;;
77361;Laerm;66427;51.798;10.954;2023-04-09T06:13:15;42.73;32.28;54.75;;
77361;Laerm;66427;51.798;10.954;2023-04-09T06:15:41;47.32;30.83;61.33;;
77361;Laerm;66427;51.798;10.954;2023-04-09T06:18:07;40.63;33.25;50.40;;
77361;Laerm;66427;51.798;10.954;2023-04-09T06:20:33;41.72;33.81;53.61;;
77361;Laerm;66427;51.798;10.954;2023-04-09T06:22:59;56.61;32.90;72.99;;
77361;Laerm;66427;51.798;10.954;2023-04-09T06:25:25;37.50;32.47;43.90;;
77361;Laerm;66427;51.798;10.954;2023-04-09T06:27:50;36.87;32.42;44.51;;
77361;Laerm;66427;51.798;10.954;2023-04-09T06:30:16;59.86;34.21;78.92;;
77361;Laerm;66427;51.798;10.954;2023-04-09T06:32:42;43.62;34.59;55.55;;
77361;Laerm;66427;51.798;10.954;2023-04-09T06:35:09;44.18;34.36;55.78;;
77361;Laerm;66427;51.798;10.954;2023-04-09T06:37:35;44.46;35.40;53.18;;
77361;Laerm;66427;51.798;10.954;2023-04-09T06:40:01;49.55;35.59;63.80;;
77361;Laerm;66427;51.798;10.954;2023-04-09T06:42:27;54.38;34.74;69.63;;
77361;Laerm;66427;51.798;10.954;2023-04-09T06:44:53;45.74;33.48;55.75;;
77361;Laerm;66427;51.798;10.954;2023-04-09T06:47:19;50.30;36.80;62.32;;
77361;Laerm;66427;51.798;10.954;2023-04-09T06:49:45;50.79;34.72;65.61;;
77361;Laerm;66427;51.798;10.954;2023-04-09T06:52:11;46.26;36.04;58.18;;
77361;Laerm;66427;51.798;10.954;2023-04-09T06:54:36;49.82;37.09;62.24;;
77361;Laerm;66427;51.798;10.954;2023-04-09T06:57:02;41.21;33.77;62.47;;
77361;Laerm;66427;51.798;10.954;2023-04-09T06:59:28;43.49;33.60;53.28;;
77361;Laerm;66427;51.798;10.954;2023-04-09T07:01:54;50.32;33.76;64.51;;
77361;Laerm;66427;51.798;10.954;2023-04-09T07:04:21;43.96;34.40;57.86;;
77361;Laerm;66427;51.798;10.954;2023-04-09T07:06:46;51.95;35.51;65.94;;
77361;Laerm;66427;51.798;10.954;2023-04-09T07:09:12;50.22;35.82;65.05;;
77361;Laerm;66427;51.798;10.954;2023-04-09T07:11:39;52.04;34.91;67.00;;
77361;Laerm;66427;51.798;10.954;2023-04-09T07:14:05;50.84;35.53;66.92;;
77361;Laerm;66427;51.798;10.954;2023-04-09T07:16:30;43.55;34.70;54.35;;
77361;Laerm;66427;51.798;10.954;2023-04-09T07:18:56;42.87;34.59;56.35;;
77361;Laerm;66427;51.798;10.954;2023-04-09T07:21:22;42.80;35.26;51.04;;
77361;Laerm;66427;51.798;10.954;2023-04-09T07:23:48;52.63;38.02;69.44;;
77361;Laerm;66427;51.798;10.954;2023-04-09T07:26:13;48.76;35.98;67.66;;
77361;Laerm;66427;51.798;10.954;2023-04-09T07:28:39;45.94;36.14;61.27;;
77361;Laerm;66427;51.798;10.954;2023-04-09T07:31:06;51.25;37.30;64.49;;
77361;Laerm;66427;51.798;10.954;2023-04-09T07:33:32;43.20;36.99;55.65;;
77361;Laerm;66427;51.798;10.954;2023-04-09T07:35:58;54.70;37.71;73.35;;
77361;Laerm;66427;51.798;10.954;2023-04-09T07:38:24;42.85;36.65;55.66;;
77361;Laerm;66427;51.798;10.954;2023-04-09T07:40:52;45.62;36.61;56.18;;
77361;Laerm;66427;51.798;10.954;2023-04-09T07:43:17;52.65;38.11;64.90;;
77361;Laerm;66427;51.798;10.954;2023-04-09T07:45:44;49.89;39.66;61.87;;
77361;Laerm;66427;51.798;10.954;2023-04-09T07:48:12;49.23;38.36;61.69;;
77361;Laerm;66427;51.798;10.954;2023-04-09T07:50:38;51.82;36.94;65.07;;
77361;Laerm;66427;51.798;10.954;2023-04-09T07:53:04;43.43;37.35;52.43;;
77361;Laerm;66427;51.798;10.954;2023-04-09T07:55:30;48.75;38.67;61.82;;
77361;Laerm;66427;51.798;10.954;2023-04-09T07:57:57;49.89;39.07;67.35;;
77361;Laerm;66427;51.798;10.954;2023-04-09T08:00:22;46.60;38.57;62.11;;
77361;Laerm;66427;51.798;10.954;2023-04-09T08:02:48;44.72;37.73;54.52;;
77361;Laerm;66427;51.798;10.954;2023-04-09T08:05:16;52.38;36.34;68.84;;
77361;Laerm;66427;51.798;10.954;2023-04-09T08:07:41;53.25;36.47;70.09;;
77361;Laerm;66427;51.798;10.954;2023-04-09T08:10:07;51.04;36.23;64.80;;
77361;Laerm;66427;51.798;10.954;2023-04-09T08:12:38;43.04;34.48;61.14;;
77361;Laerm;66427;51.798;10.954;2023-04-09T08:15:04;43.32;36.82;54.56;;
77361;Laerm;66427;51.798;10.954;2023-04-09T08:17:29;51.95;37.39;67.37;;
77361;Laerm;66427;51.798;10.954;2023-04-09T08:19:55;49.19;37.15;61.40;;
77361;Laerm;66427;51.798;10.954;2023-04-09T08:22:21;44.60;36.08;61.70;;
77361;Laerm;66427;51.798;10.954;2023-04-09T08:24:50;50.50;36.90;64.43;;
77361;Laerm;66427;51.798;10.954;2023-04-09T08:27:16;55.24;37.15;67.28;;
77361;Laerm;66427;51.798;10.954;2023-04-09T08:29:43;59.60;36.53;78.06;;
77361;Laerm;66427;51.798;10.954;2023-04-09T08:32:08;41.80;36.35;50.40;;
77361;Laerm;66427;51.798;10.954;2023-04-09T08:34:34;49.89;36.68;64.06;;
77361;Laerm;66427;51.798;10.954;2023-04-09T08:37:00;47.19;37.04;59.69;;
77361;Laerm;66427;51.798;10.954;2023-04-09T08:39:27;55.13;37.51;70.91;;
77361;Laerm;66427;51.798;10.954;2023-04-09T08:41:53;49.50;37.43;63.60;;
77361;Laerm;66427;51.798;10.954;2023-04-09T08:44:25;54.91;39.50;65.80;;
77361;Laerm;66427;51.798;10.954;2023-04-09T08:46:51;42.51;37.25;51.19;;
77361;Laerm;66427;51.798;10.954;2023-04-09T08:49:17;53.79;36.42;66.21;;
77361;Laerm;66427;51.798;10.954;2023-04-09T08:51:47;52.13;35.88;62.52;;
77361;Laerm;66427;51.798;10.954;2023-04-09T08:54:16;51.01;40.97;63.53;;
77361;Laerm;66427;51.798;10.954;2023-04-09T08:56:47;53.50;37.55;63.41;;
77361;Laerm;66427;51.798;10.954;2023-04-09T08:59:19;53.73;37.59;64.57;;
77361;Laerm;66427;51.798;10.954;2023-04-09T09:01:45;54.09;37.77;69.34;;
77361;Laerm;66427;51.798;10.954;2023-04-09T09:04:13;63.77;37.99;80.70;;
77361;Laerm;66427;51.798;10.954;2023-04-09T09:06:40;50.21;37.27;64.09;;
77361;Laerm;66427;51.798;10.954;2023-04-09T09:09:06;54.01;37.06;71.47;;
77361;Laerm;66427;51.798;10.954;2023-04-09T09:11:36;52.09;36.88;65.69;;
77361;Laerm;66427;51.798;10.954;2023-04-09T09:16:28;54.90;37.09;69.59;;
77361;Laerm;66427;51.798;10.954;2023-04-09T09:18:54;55.00;38.54;66.40;;
77361;Laerm;66427;51.798;10.954;2023-04-09T09:21:20;47.53;37.31;60.87;;
77361;Laerm;66427;51.798;10.954;2023-04-09T09:23:46;41.28;36.62;52.03;;
77361;Laerm;66427;51.798;10.954;2023-04-09T09:26:15;56.25;38.14;67.06;;
77361;Laerm;66427;51.798;10.954;2023-04-09T09:28:42;47.11;36.32;62.30;;
77361;Laerm;66427;51.798;10.954;2023-04-09T09:31:08;49.82;35.72;63.61;;
77361;Laerm;66427;51.798;10.954;2023-04-09T09:33:34;56.82;36.86;71.36;;
77361;Laerm;66427;51.798;10.954;2023-04-09T09:36:00;56.38;40.43;67.52;;
77361;Laerm;66427;51.798;10.954;2023-04-09T09:38:28;51.02;37.15;66.69;;
77361;Laerm;66427;51.798;10.954;2023-04-09T09:40:54;53.18;37.15;69.57;;
77361;Laerm;66427;51.798;10.954;2023-04-09T09:43:21;44.49;37.56;52.20;;
77361;Laerm;66427;51.798;10.954;2023-04-09T09:45:47;58.11;40.05;70.83;;
77361;Laerm;66427;51.798;10.954;2023-04-09T09:48:13;45.36;38.08;61.43;;
77361;Laerm;66427;51.798;10.954;2023-04-09T09:50:40;51.17;37.83;64.75;;
77361;Laerm;66427;51.798;10.954;2023-04-09T09:53:07;55.14;40.33;67.91;;
77361;Laerm;66427;51.798;10.954;2023-04-09T09:55:33;57.39;41.00;71.74;;
77361;Laerm;66427;51.798;10.954;2023-04-09T09:58:03;57.51;41.67;83.36;;
77361;Laerm;66427;51.798;10.954;2023-04-09T10:00:32;54.97;39.19;67.11;;
77361;Laerm;66427;51.798;10.954;2023-04-09T10:02:58;51.48;37.76;64.61;;
77361;Laerm;66427;51.798;10.954;2023-04-09T10:05:26;46.83;36.39;61.89;;
77361;Laerm;66427;51.798;10.954;2023-04-09T10:07:57;53.65;36.85;67.75;;
77361;Laerm;66427;51.798;10.954;2023-04-09T10:10:25;52.04;36.17;64.56;;
77361;Laerm;66427;51.798;10.954;2023-04-09T10:12:51;55.48;36.03;70.00;;
77361;Laerm;66427;51.798;10.954;2023-04-09T10:15:18;45.65;35.60;58.69;;
77361;Laerm;66427;51.798;10.954;2023-04-09T10:17:45;53.04;36.75;65.20;;
77361;Laerm;66427;51.798;10.954;2023-04-09T10:20:18;54.50;36.19;66.63;;
77361;Laerm;66427;51.798;10.954;2023-04-09T10:22:48;51.71;34.94;64.84;;
77361;Laerm;66427;51.798;10.954;2023-04-09T10:25:15;50.94;36.31;67.29;;
77361;Laerm;66427;51.798;10.954;2023-04-09T10:27:41;51.51;35.21;68.18;;
77361;Laerm;66427;51.798;10.954;2023-04-09T10:30:30;55.42;35.57;69.90;;
77361;Laerm;66427;51.798;10.954;2023-04-09T10:33:07;47.93;35.69;66.61;;
77361;Laerm;66427;51.798;10.954;2023-04-09T10:35:33;54.24;37.03;66.64;;
77361;Laerm;66427;51.798;10.954;2023-04-09T10:38:02;48.99;35.00;65.32;;
77361;Laerm;66427;51.798;10.954;2023-04-09T10:40:27;52.72;36.89;64.93;;
77361;Laerm;66427;51.798;10.954;2023-04-09T10:42:54;52.05;38.15;65.03;;
77361;Laerm;66427;51.798;10.954;2023-04-09T10:45:20;51.00;36.98;67.79;;
77361;Laerm;66427;51.798;10.954;2023-04-09T10:47:48;56.06;36.57;68.72;;
77361;Laerm;66427;51.798;10.954;2023-04-09T10:52:44;51.68;37.19;67.06;;
77361;Laerm;66427;51.798;10.954;2023-04-09T10:57:55;53.36;36.25;66.71;;
77361;Laerm;66427;51.798;10.954;2023-04-09T11:00:20;64.77;37.73;83.51;;
77361;Laerm;66427;51.798;10.954;2023-04-09T11:05:32;48.76;38.76;64.18;;
77361;Laerm;66427;51.798;10.954;2023-04-09T11:08:08;53.03;38.88;68.33;;
77361;Laerm;66427;51.798;10.954;2023-04-09T11:10:35;47.67;38.44;60.91;;
77361;Laerm;66427;51.798;10.954;2023-04-09T11:13:02;57.33;40.04;71.87;;
77361;Laerm;66427;51.798;10.954;2023-04-09T11:15:28;47.51;41.33;58.29;;
77361;Laerm;66427;51.798;10.954;2023-04-09T11:17:53;48.07;39.61;60.43;;
77361;Laerm;66427;51.798;10.954;2023-04-09T11:20:20;50.38;40.14;62.98;;
77361;Laerm;66427;51.798;10.954;2023-04-09T11:22:50;52.20;40.35;65.74;;
77361;Laerm;66427;51.798;10.954;2023-04-09T11:25:19;49.80;39.64;61.76;;
77361;Laerm;66427;51.798;10.954;2023-04-09T11:27:45;54.12;37.64;68.30;;
77361;Laerm;66427;51.798;10.954;2023-04-09T11:30:12;51.25;37.84;68.38;;
77361;Laerm;66427;51.798;10.954;2023-04-09T11:32:41;50.57;38.06;63.56;;
77361;Laerm;66427;51.798;10.954;2023-04-09T11:35:17;56.46;38.94;73.50;;
77361;Laerm;66427;51.798;10.954;2023-04-09T11:37:44;53.94;39.32;72.43;;
77361;Laerm;66427;51.798;10.954;2023-04-09T11:40:13;55.27;41.84;74.98;;
77361;Laerm;66427;51.798;10.954;2023-04-09T11:42:40;48.02;39.02;63.29;;
77361;Laerm;66427;51.798;10.954;2023-04-09T11:45:06;43.92;38.07;54.45;;
77361;Laerm;66427;51.798;10.954;2023-04-09T11:47:33;51.07;40.53;62.25;;
77361;Laerm;66427;51.798;10.954;2023-04-09T11:49:58;52.19;39.66;67.21;;
77361;Laerm;66427;51.798;10.954;2023-04-09T11:52:24;50.02;39.35;61.05;;
77361;Laerm;66427;51.798;10.954;2023-04-09T11:54:51;54.56;38.52;66.31;;
77361;Laerm;66427;51.798;10.954;2023-04-09T11:57:17;46.29;38.97;58.03;;
77361;Laerm;66427;51.798;10.954;2023-04-09T11:59:43;45.32;38.59;60.97;;
77361;Laerm;66427;51.798;10.954;2023-04-09T12:02:10;51.38;38.94;65.69;;
77361;Laerm;66427;51.798;10.954;2023-04-09T12:04:37;53.54;39.90;65.09;;
77361;Laerm;66427;51.798;10.954;2023-04-09T12:07:13;50.53;38.63;66.91;;
77361;Laerm;66427;51.798;10.954;2023-04-09T12:09:45;42.87;36.98;53.96;;
77361;Laerm;66427;51.798;10.954;2023-04-09T12:12:16;44.27;38.11;54.55;;
77361;Laerm;66427;51.798;10.954;2023-04-09T12:14:44;46.29;39.15;59.85;;
77361;Laerm;66427;51.798;10.954;2023-04-09T12:17:10;49.67;38.15;65.85;;
77361;Laerm;66427;51.798;10.954;2023-04-09T12:19:36;52.71;39.26;66.75;;
77361;Laerm;66427;51.798;10.954;2023-04-09T12:22:02;49.81;37.27;66.08;;
77361;Laerm;66427;51.798;10.954;2023-04-09T12:24:28;52.78;38.68;69.03;;
77361;Laerm;66427;51.798;10.954;2023-04-09T12:26:54;52.77;40.22;67.24;;
77361;Laerm;66427;51.798;10.954;2023-04-09T12:29:21;54.13;40.04;67.50;;
77361;Laerm;66427;51.798;10.954;2023-04-09T12:31:48;55.62;41.30;71.53;;
77361;Laerm;66427;51.798;10.954;2023-04-09T12:34:15;50.71;39.03;65.99;;
77361;Laerm;66427;51.798;10.954;2023-04-09T12:36:41;50.78;40.20;63.40;;
77361;Laerm;66427;51.798;10.954;2023-04-09T12:39:09;52.46;40.23;61.56;;
77361;Laerm;66427;51.798;10.954;2023-04-09T12:41:35;50.70;37.49;62.88;;
77361;Laerm;66427;51.798;10.954;2023-04-09T12:44:01;56.72;40.26;69.35;;
77361;Laerm;66427;51.798;10.954;2023-04-09T12:46:27;55.93;41.06;69.37;;
77361;Laerm;66427;51.798;10.954;2023-04-09T12:48:54;52.64;40.14;65.75;;
77361;Laerm;66427;51.798;10.954;2023-04-09T12:51:19;51.32;39.84;63.16;;
77361;Laerm;66427;51.798;10.954;2023-04-09T12:53:46;47.66;39.22;59.33;;
77361;Laerm;66427;51.798;10.954;2023-04-09T12:56:12;51.00;38.66;64.54;;
77361;Laerm;66427;51.798;10.954;2023-04-09T12:58:38;51.35;40.25;65.45;;
77361;Laerm;66427;51.798;10.954;2023-04-09T13:01:04;55.02;40.25;67.23;;
77361;Laerm;66427;51.798;10.954;2023-04-09T13:03:30;54.56;40.72;70.07;;
77361;Laerm;66427;51.798;10.954;2023-04-09T13:05:55;55.30;40.99;68.11;;
77361;Laerm;66427;51.798;10.954;2023-04-09T13:08:22;53.99;40.01;67.12;;
77361;Laerm;66427;51.798;10.954;2023-04-09T13:10:48;46.76;38.98;56.54;;
77361;Laerm;66427;51.798;10.954;2023-04-09T13:13:14;50.30;40.42;60.09;;
77361;Laerm;66427;51.798;10.954;2023-04-09T13:15:41;51.88;39.20;66.01;;
77361;Laerm;66427;51.798;10.954;2023-04-09T13:18:11;50.22;40.26;63.65;;
77361;Laerm;66427;51.798;10.954;2023-04-09T13:20:38;45.78;37.49;60.28;;
77361;Laerm;66427;51.798;10.954;2023-04-09T13:23:04;49.96;37.21;64.31;;
77361;Laerm;66427;51.798;10.954;2023-04-09T13:25:30;52.51;37.68;69.35;;
77361;Laerm;66427;51.798;10.954;2023-04-09T13:27:56;47.91;38.29;58.18;;
77361;Laerm;66427;51.798;10.954;2023-04-09T13:30:22;52.68;39.42;64.69;;
77361;Laerm;66427;51.798;10.954;2023-04-09T13:32:48;55.60;40.50;74.19;;
77361;Laerm;66427;51.798;10.954;2023-04-09T13:35:14;52.97;38.60;64.92;;
77361;Laerm;66427;51.798;10.954;2023-04-09T13:37:40;50.13;38.78;66.25;;
77361;Laerm;66427;51.798;10.954;2023-04-09T13:40:07;52.49;37.92;65.19;;
77361;Laerm;66427;51.798;10.954;2023-04-09T13:42:35;48.48;39.01;61.01;;
77361;Laerm;66427;51.798;10.954;2023-04-09T13:45:04;52.25;38.30;65.01;;
77361;Laerm;66427;51.798;10.954;2023-04-09T13:47:31;44.07;36.46;59.52;;
77361;Laerm;66427;51.798;10.954;2023-04-09T13:49:56;51.37;36.46;62.15;;
77361;Laerm;66427;51.798;10.954;2023-04-09T13:52:23;52.07;35.77;70.25;;